createdAt,value
2017-12-30T06:49:13.152Z,992.94
2017-12-30T06:49:53.630Z,992.90
2017-12-30T06:50:53.673Z,992.92
2017-12-30T06:51:53.630Z,992.87
2017-12-30T06:52:54.705Z,992.91
2017-12-30T06:53:53.641Z,992.89
2017-12-30T06:54:54.729Z,992.81
2017-12-30T06:55:53.633Z,992.72
2017-12-30T06:56:53.632Z,992.70
2017-12-30T06:57:53.637Z,992.66
2017-12-30T06:58:53.632Z,992.62
2017-12-30T06:59:53.640Z,992.67
2017-12-30T07:00:53.632Z,992.63
2017-12-30T07:01:53.659Z,992.53
2017-12-30T07:02:53.631Z,992.51
2017-12-30T07:03:53.662Z,992.48
2017-12-30T07:04:53.636Z,992.50
2017-12-30T07:05:53.676Z,992.54
2017-12-30T07:06:53.642Z,992.49
2017-12-30T07:07:53.689Z,992.41
2017-12-30T07:08:53.641Z,992.35
2017-12-30T07:09:54.725Z,992.25
2017-12-30T07:10:53.633Z,992.28
2017-12-30T07:12:00.682Z,992.23
2017-12-30T07:12:53.637Z,992.27
2017-12-30T07:13:53.730Z,992.35
2017-12-30T07:14:53.638Z,992.37
2017-12-30T07:15:53.751Z,992.40
2017-12-30T07:16:53.634Z,992.35
2017-12-30T07:17:53.657Z,992.42
2017-12-30T07:18:53.637Z,992.46
2017-12-30T07:19:59.611Z,992.42
2017-12-30T07:20:53.640Z,992.37
2017-12-30T07:21:54.702Z,992.34
2017-12-30T07:22:53.642Z,992.27
2017-12-30T07:23:53.700Z,992.23
2017-12-30T07:24:53.646Z,992.15
2017-12-30T07:25:53.711Z,992.08
2017-12-30T07:26:53.644Z,991.97
2017-12-30T07:27:54.745Z,991.95
2017-12-30T07:28:53.648Z,991.87
2017-12-30T07:29:53.739Z,991.87
2017-12-30T07:30:53.642Z,991.75
2017-12-30T07:31:53.752Z,991.76
2017-12-30T07:32:53.645Z,991.73
2017-12-30T07:33:53.770Z,991.70
2017-12-30T07:34:53.644Z,991.70
2017-12-30T07:35:54.700Z,991.70
2017-12-30T07:36:53.638Z,991.80
2017-12-30T07:38:15.708Z,991.85
2017-12-30T07:38:53.649Z,991.89
2017-12-30T07:39:54.730Z,991.86
2017-12-30T07:40:53.646Z,991.84
2017-12-30T07:41:55.763Z,991.83
2017-12-30T07:42:53.648Z,991.85
2017-12-30T07:43:53.732Z,991.78
2017-12-30T07:44:53.648Z,991.81
2017-12-30T07:45:53.736Z,991.79
2017-12-30T07:46:53.647Z,991.73
2017-12-30T07:47:54.677Z,991.66
2017-12-30T07:48:53.648Z,991.49
2017-12-30T07:49:53.667Z,991.47
2017-12-30T07:50:53.654Z,991.46
2017-12-30T07:51:54.704Z,991.46
2017-12-30T07:52:53.645Z,991.45
2017-12-30T07:54:04.656Z,991.44
2017-12-30T07:54:53.652Z,991.49
2017-12-30T07:55:54.740Z,991.41
2017-12-30T07:56:53.663Z,991.40
2017-12-30T07:57:55.774Z,991.34
2017-12-30T07:58:53.654Z,991.31
2017-12-30T07:59:54.772Z,991.24
2017-12-30T08:00:53.653Z,991.17
2017-12-30T08:01:53.748Z,991.09
2017-12-30T08:02:53.653Z,991.01
2017-12-30T08:03:55.709Z,990.97
2017-12-30T08:04:53.654Z,990.93
2017-12-30T08:05:54.704Z,990.84
2017-12-30T08:06:53.656Z,990.79
2017-12-30T08:07:53.688Z,990.80
2017-12-30T08:08:53.656Z,990.79
2017-12-30T08:09:55.770Z,990.77
2017-12-30T08:10:53.657Z,990.66
2017-12-30T08:11:53.721Z,990.58
2017-12-30T08:12:53.656Z,990.52
2017-12-30T08:13:53.727Z,990.49
2017-12-30T08:14:53.664Z,990.52
2017-12-30T08:16:00.600Z,990.53
2017-12-30T08:16:53.659Z,990.39
2017-12-30T08:17:54.675Z,990.30
2017-12-30T08:18:53.666Z,990.23
2017-12-30T08:19:53.769Z,990.17
2017-12-30T08:20:53.660Z,990.16
2017-12-30T08:21:53.679Z,990.11
2017-12-30T08:22:53.672Z,990.09
2017-12-30T08:23:53.699Z,990.13
2017-12-30T08:24:53.659Z,990.06
2017-12-30T08:25:53.704Z,990.08
2017-12-30T08:26:53.663Z,990.09
2017-12-30T08:27:53.718Z,989.99
2017-12-30T08:28:53.661Z,989.94
2017-12-30T08:29:54.756Z,989.85
2017-12-30T08:30:53.668Z,989.78
2017-12-30T08:31:53.745Z,989.70
2017-12-30T08:32:53.670Z,989.67
2017-12-30T08:33:53.759Z,989.64
2017-12-30T08:34:53.664Z,989.58
2017-12-30T08:35:54.695Z,989.59
2017-12-30T08:36:53.668Z,989.53
2017-12-30T08:37:53.685Z,989.58
2017-12-30T08:38:53.666Z,989.54
2017-12-30T08:39:53.699Z,989.45
2017-12-30T08:40:53.661Z,989.54
2017-12-30T08:42:04.667Z,989.45
2017-12-30T08:42:53.665Z,989.47
2017-12-30T08:43:54.749Z,989.47
2017-12-30T08:44:53.669Z,989.46
2017-12-30T08:45:53.741Z,989.44
2017-12-30T08:46:53.671Z,989.48
2017-12-30T08:47:53.754Z,989.45
2017-12-30T08:48:53.674Z,989.41
2017-12-30T08:49:53.768Z,989.38
2017-12-30T08:50:53.668Z,989.32
2017-12-30T08:51:53.782Z,989.29
2017-12-30T08:52:53.674Z,989.25
2017-12-30T08:53:53.689Z,989.19
2017-12-30T08:54:53.671Z,989.14
2017-12-30T08:55:53.710Z,989.13
2017-12-30T08:56:53.670Z,989.17
2017-12-30T08:57:55.768Z,989.14
2017-12-30T08:58:53.678Z,989.15
2017-12-30T08:59:53.740Z,989.07
2017-12-30T09:00:53.673Z,989.04
2017-12-30T09:01:55.691Z,989.03
2017-12-30T09:02:53.704Z,989.04
2017-12-30T09:03:55.712Z,988.99
2017-12-30T09:04:53.683Z,989.03
2017-12-30T09:05:55.726Z,989.02
2017-12-30T09:06:53.681Z,988.93
2017-12-30T09:07:53.789Z,988.91
2017-12-30T09:08:53.678Z,988.88
2017-12-30T09:09:53.702Z,988.81
2017-12-30T09:10:53.679Z,988.81
2017-12-30T09:11:53.714Z,988.83
2017-12-30T09:12:53.676Z,988.75
2017-12-30T09:13:55.780Z,988.78
2017-12-30T09:14:53.680Z,988.72
2017-12-30T09:15:53.742Z,988.68
2017-12-30T09:16:53.675Z,988.63
2017-12-30T09:17:54.780Z,988.68
2017-12-30T09:18:53.681Z,988.71
2017-12-30T09:19:53.767Z,988.68
2017-12-30T09:20:53.670Z,988.62
2017-12-30T09:21:53.784Z,988.58
2017-12-30T09:22:53.682Z,988.54
2017-12-30T09:24:04.695Z,988.57
2017-12-30T09:24:53.681Z,988.47
2017-12-30T09:26:06.710Z,988.47
2017-12-30T09:26:53.682Z,988.46
2017-12-30T09:27:53.718Z,988.46
2017-12-30T09:28:53.681Z,988.49
2017-12-30T09:29:54.770Z,988.48
2017-12-30T09:30:53.694Z,988.55
2017-12-30T09:31:55.798Z,988.65
2017-12-30T09:32:53.698Z,988.57
2017-12-30T09:33:53.756Z,988.60
2017-12-30T09:34:53.682Z,988.60
2017-12-30T09:35:54.795Z,988.61
2017-12-30T09:36:53.693Z,988.53
2017-12-30T09:37:54.716Z,988.54
2017-12-30T09:38:53.687Z,988.54
2017-12-30T09:39:54.725Z,988.54
2017-12-30T09:40:53.693Z,988.55
2017-12-30T09:42:05.693Z,988.58
2017-12-30T09:42:53.690Z,988.54
2017-12-30T09:43:54.749Z,988.53
2017-12-30T09:44:53.698Z,988.52
2017-12-30T09:45:54.762Z,988.59
2017-12-30T09:46:53.690Z,988.56
2017-12-30T09:47:55.803Z,988.48
2017-12-30T09:48:53.691Z,988.55
2017-12-30T09:49:54.789Z,988.38
2017-12-30T09:50:53.688Z,988.39
2017-12-30T09:51:59.618Z,988.39
2017-12-30T09:52:53.691Z,988.28
2017-12-30T09:53:59.630Z,988.25
2017-12-30T09:54:53.694Z,988.19
2017-12-30T09:55:54.725Z,988.13
2017-12-30T09:56:53.696Z,988.15
2017-12-30T09:57:53.717Z,988.07
2017-12-30T09:58:53.689Z,988.03
2017-12-30T09:59:59.668Z,988.03
2017-12-30T10:00:53.697Z,987.98
2017-12-30T10:01:58.661Z,987.88
2017-12-30T10:02:53.696Z,987.90
2017-12-30T10:03:55.803Z,987.85
2017-12-30T10:04:53.700Z,987.78
2017-12-30T10:05:53.772Z,987.80
2017-12-30T10:06:53.701Z,987.73
2017-12-30T10:07:53.784Z,987.67
2017-12-30T10:08:53.698Z,987.69
2017-12-30T10:09:53.794Z,987.58
2017-12-30T10:10:53.699Z,987.59
2017-12-30T10:12:06.721Z,987.61
2017-12-30T10:12:53.698Z,987.55
2017-12-30T10:13:53.729Z,987.65
2017-12-30T10:14:53.700Z,987.54
2017-12-30T10:15:54.760Z,987.53
2017-12-30T10:16:53.704Z,987.47
2017-12-30T10:17:53.701Z,987.42
2017-12-30T10:18:53.701Z,987.36
2017-12-30T10:19:54.786Z,987.34
2017-12-30T10:20:53.701Z,987.32
2017-12-30T10:21:53.702Z,987.35
2017-12-30T10:22:55.730Z,987.36
2017-12-30T10:23:53.708Z,987.33
2017-12-30T10:24:58.611Z,987.31
2017-12-30T10:25:53.703Z,987.28
2017-12-30T10:26:53.812Z,987.30
2017-12-30T10:27:53.703Z,987.33
2017-12-30T10:28:54.743Z,987.28
2017-12-30T10:29:53.705Z,987.35
2017-12-30T10:30:59.680Z,987.31
2017-12-30T10:31:53.719Z,987.31
2017-12-30T10:32:59.688Z,987.21
2017-12-30T10:33:53.705Z,987.27
2017-12-30T10:34:55.810Z,987.20
2017-12-30T10:35:53.708Z,987.17
2017-12-30T10:36:54.805Z,987.14
2017-12-30T10:37:53.709Z,987.17
2017-12-30T10:38:55.742Z,987.23
2017-12-30T10:39:53.706Z,987.17
2017-12-30T10:40:55.750Z,987.13
2017-12-30T10:41:53.709Z,987.14
2017-12-30T10:42:54.738Z,987.09
2017-12-30T10:43:53.711Z,987.14
2017-12-30T10:44:53.740Z,987.18
2017-12-30T10:45:53.716Z,987.19
2017-12-30T10:46:58.659Z,987.05
2017-12-30T10:47:53.709Z,987.19
2017-12-30T10:48:55.801Z,987.19
2017-12-30T10:49:53.720Z,987.34
2017-12-30T10:50:54.794Z,987.46
2017-12-30T10:51:53.717Z,987.51
2017-12-30T10:52:53.878Z,987.60
2017-12-30T10:53:53.714Z,987.49
2017-12-30T10:54:54.826Z,987.40
2017-12-30T10:55:53.716Z,987.26
2017-12-30T10:56:53.815Z,987.13
2017-12-30T10:57:53.720Z,987.30
2017-12-30T10:58:53.717Z,987.31
2017-12-30T10:59:53.716Z,987.36
2017-12-30T11:00:53.716Z,987.44
2017-12-30T11:01:55.792Z,987.44
2017-12-30T11:02:53.717Z,987.40
2017-12-30T11:03:53.757Z,987.43
2017-12-30T11:04:53.722Z,987.44
2017-12-30T11:06:08.619Z,987.48
2017-12-30T11:06:53.719Z,987.43
2017-12-30T11:07:55.833Z,987.45
2017-12-30T11:08:53.721Z,987.41
2017-12-30T11:09:54.820Z,987.36
2017-12-30T11:10:53.725Z,987.40
2017-12-30T11:11:53.809Z,987.45
2017-12-30T11:12:53.719Z,987.45
2017-12-30T11:13:53.726Z,987.45
2017-12-30T11:14:53.724Z,987.51
2017-12-30T11:15:53.731Z,987.48
2017-12-30T11:16:53.740Z,987.46
2017-12-30T11:17:53.726Z,987.41
2017-12-30T11:18:54.783Z,987.37
2017-12-30T11:19:53.733Z,987.44
2017-12-30T11:20:58.682Z,987.40
2017-12-30T11:21:53.727Z,987.36
2017-12-30T11:22:58.695Z,987.32
2017-12-30T11:23:53.729Z,987.39
2017-12-30T11:24:53.794Z,987.36
2017-12-30T11:25:53.730Z,987.30
2017-12-30T11:26:53.808Z,987.28
2017-12-30T11:27:53.731Z,987.31
2017-12-30T11:28:53.822Z,987.40
2017-12-30T11:29:53.727Z,987.23
2017-12-30T11:30:58.660Z,987.18
2017-12-30T11:31:53.734Z,987.00
2017-12-30T11:32:54.805Z,987.24
2017-12-30T11:33:53.733Z,987.26
2017-12-30T11:34:55.810Z,987.29
2017-12-30T11:35:53.735Z,987.16
2017-12-30T11:36:53.770Z,987.19
2017-12-30T11:37:53.736Z,987.23
2017-12-30T11:38:58.749Z,987.20
2017-12-30T11:39:53.734Z,987.27
2017-12-30T11:40:53.804Z,987.31
2017-12-30T11:41:53.740Z,987.21
2017-12-30T11:42:53.817Z,987.27
2017-12-30T11:43:53.736Z,987.19
2017-12-30T11:44:55.776Z,987.17
2017-12-30T11:45:53.737Z,987.22
2017-12-30T11:46:58.659Z,987.12
2017-12-30T11:47:53.735Z,987.16
2017-12-30T11:48:54.778Z,987.22
2017-12-30T11:49:53.737Z,987.26
2017-12-30T11:50:53.767Z,987.27
2017-12-30T11:51:53.738Z,987.25
2017-12-30T11:53:06.692Z,987.31
2017-12-30T11:53:53.745Z,987.33
2017-12-30T11:54:58.711Z,987.33
2017-12-30T11:55:53.741Z,987.28
2017-12-30T11:56:54.833Z,987.26
2017-12-30T11:57:53.742Z,987.23
2017-12-30T11:58:54.845Z,987.23
2017-12-30T11:59:53.746Z,987.25
2017-12-30T12:00:53.837Z,987.22
2017-12-30T12:01:53.748Z,987.29
2017-12-30T12:02:58.664Z,987.26
2017-12-30T12:03:53.744Z,987.29
2017-12-30T12:04:58.677Z,987.32
2017-12-30T12:05:53.744Z,987.26
2017-12-30T12:06:53.791Z,987.31
2017-12-30T12:07:53.747Z,987.21
2017-12-30T12:08:58.704Z,987.23
2017-12-30T12:09:53.751Z,987.29
2017-12-30T12:10:54.823Z,987.32
2017-12-30T12:11:53.751Z,987.35
2017-12-30T12:12:54.838Z,987.37
2017-12-30T12:13:53.752Z,987.29
2017-12-30T12:14:54.856Z,987.38
2017-12-30T12:15:53.752Z,987.32
2017-12-30T12:16:55.783Z,987.36
2017-12-30T12:17:53.760Z,987.27
2017-12-30T12:19:00.717Z,987.34
2017-12-30T12:19:53.757Z,987.39
2017-12-30T12:20:53.772Z,987.43
2017-12-30T12:21:53.756Z,987.39
2017-12-30T12:22:54.810Z,987.43
2017-12-30T12:23:53.755Z,987.41
2017-12-30T12:25:10.693Z,987.43
2017-12-30T12:25:53.754Z,987.50
2017-12-30T12:27:05.694Z,987.38
2017-12-30T12:27:53.768Z,987.60
2017-12-30T12:29:04.673Z,987.49
2017-12-30T12:29:53.766Z,987.53
2017-12-30T12:31:00.692Z,987.49
2017-12-30T12:31:53.759Z,987.54
2017-12-30T12:32:59.700Z,987.47
2017-12-30T12:33:53.773Z,987.48
2017-12-30T12:34:54.788Z,987.51
2017-12-30T12:35:53.766Z,987.52
2017-12-30T12:36:53.877Z,987.50
2017-12-30T12:37:53.768Z,987.44
2017-12-30T12:39:18.669Z,987.40
2017-12-30T12:39:53.764Z,987.47
2017-12-30T12:40:53.807Z,987.50
2017-12-30T12:41:53.770Z,987.49
2017-12-30T12:42:55.859Z,987.54
2017-12-30T12:43:53.770Z,987.58
2017-12-30T12:45:00.691Z,987.49
2017-12-30T12:45:53.772Z,987.48
2017-12-30T12:47:00.699Z,987.51
2017-12-30T12:47:53.774Z,987.43
2017-12-30T12:48:58.672Z,987.47
2017-12-30T12:49:53.778Z,987.64
2017-12-30T12:50:53.866Z,987.72
2017-12-30T12:51:53.773Z,987.89
2017-12-30T12:52:55.831Z,987.83
2017-12-30T12:53:53.768Z,987.82
2017-12-30T12:54:54.822Z,987.76
2017-12-30T12:55:53.775Z,987.80
2017-12-30T12:56:59.647Z,987.82
2017-12-30T12:57:53.773Z,987.95
2017-12-30T12:59:00.690Z,987.97
2017-12-30T12:59:53.780Z,988.08
2017-12-30T13:00:54.872Z,988.09
2017-12-30T13:01:53.781Z,988.01
2017-12-30T13:02:58.668Z,988.04
2017-12-30T13:03:53.787Z,988.04
2017-12-30T13:04:54.895Z,988.10
2017-12-30T13:05:53.783Z,988.00
2017-12-30T13:06:54.799Z,988.14
2017-12-30T13:07:53.782Z,988.13
2017-12-30T13:08:58.717Z,988.18
2017-12-30T13:09:53.784Z,988.08
2017-12-30T13:10:55.846Z,988.18
2017-12-30T13:11:53.791Z,988.21
2017-12-30T13:12:55.871Z,988.21
2017-12-30T13:13:53.793Z,988.22
2017-12-30T13:14:53.833Z,988.26
2017-12-30T13:15:53.789Z,988.30
2017-12-30T13:16:53.849Z,988.24
2017-12-30T13:17:53.793Z,988.28
2017-12-30T13:18:58.661Z,988.39
2017-12-30T13:19:53.797Z,988.40
2017-12-30T13:20:53.873Z,988.47
2017-12-30T13:21:53.810Z,988.53
2017-12-30T13:23:04.634Z,988.43
2017-12-30T13:23:53.813Z,988.43
2017-12-30T13:24:53.800Z,988.44
2017-12-30T13:25:53.799Z,988.40
2017-12-30T13:27:10.755Z,988.45
2017-12-30T13:27:53.804Z,988.59
2017-12-30T13:28:54.843Z,988.63
2017-12-30T13:30:04.678Z,988.50
2017-12-30T13:30:53.799Z,988.53
2017-12-30T13:31:53.840Z,988.52
2017-12-30T13:32:53.799Z,988.70
2017-12-30T13:33:53.855Z,988.59
2017-12-30T13:34:53.806Z,988.54
2017-12-30T13:35:59.702Z,988.56
2017-12-30T13:36:53.805Z,988.61
2017-12-30T13:37:55.825Z,988.69
2017-12-30T13:38:53.811Z,988.67
2017-12-30T13:40:10.689Z,988.77
2017-12-30T13:40:53.805Z,988.75
2017-12-30T13:41:54.829Z,988.83
2017-12-30T13:42:53.810Z,988.88
2017-12-30T13:43:55.875Z,988.90
2017-12-30T13:44:53.818Z,988.96
2017-12-30T13:45:53.835Z,989.01
2017-12-30T13:46:53.809Z,989.02
2017-12-30T13:47:54.872Z,989.12
2017-12-30T13:48:53.841Z,989.08
2017-12-30T13:49:54.890Z,989.15
2017-12-30T13:50:53.819Z,989.16
2017-12-30T13:51:58.688Z,989.14
2017-12-30T13:52:53.816Z,989.15
2017-12-30T13:53:59.728Z,989.21
2017-12-30T13:54:53.821Z,989.19
2017-12-30T13:55:55.851Z,989.14
2017-12-30T13:56:53.822Z,989.20
2017-12-30T13:58:08.663Z,989.27
2017-12-30T13:58:53.833Z,989.35
2017-12-30T13:59:55.889Z,989.36
2017-12-30T14:00:53.832Z,989.38
2017-12-30T14:02:00.706Z,989.29
2017-12-30T14:02:53.832Z,989.41
2017-12-30T14:03:55.916Z,989.38
2017-12-30T14:04:53.845Z,989.29
2017-12-30T14:05:53.869Z,989.35
2017-12-30T14:06:53.835Z,989.26
2017-12-30T14:07:55.947Z,989.33
2017-12-30T14:08:53.840Z,989.36
2017-12-30T14:09:58.717Z,989.38
2017-12-30T14:10:53.839Z,989.34
2017-12-30T14:11:54.933Z,989.40
2017-12-30T14:12:53.838Z,989.39
2017-12-30T14:14:05.702Z,989.43
2017-12-30T14:14:53.841Z,989.50
2017-12-30T14:16:04.692Z,989.44
2017-12-30T14:16:53.849Z,989.51
2017-12-30T14:18:14.952Z,989.49
2017-12-30T14:18:53.865Z,989.50
2017-12-30T14:19:54.906Z,989.50
2017-12-30T14:20:53.849Z,989.62
2017-12-30T14:21:59.736Z,989.56
2017-12-30T14:22:53.852Z,989.66
2017-12-30T14:23:54.908Z,989.60
2017-12-30T14:24:53.872Z,989.64
2017-12-30T14:25:54.933Z,989.59
2017-12-30T14:26:53.855Z,989.75
2017-12-30T14:27:53.921Z,989.74
2017-12-30T14:28:53.865Z,989.81
2017-12-30T14:29:54.970Z,989.73
2017-12-30T14:30:53.852Z,989.71
2017-12-30T14:31:58.657Z,989.75
2017-12-30T14:32:53.862Z,989.84
2017-12-30T14:34:10.647Z,989.99
2017-12-30T14:34:53.866Z,990.02
2017-12-30T14:35:58.683Z,990.08
2017-12-30T14:36:53.881Z,990.08
2017-12-30T14:37:55.931Z,990.02
2017-12-30T14:38:53.872Z,990.17
2017-12-30T14:39:54.919Z,990.26
2017-12-30T14:40:53.879Z,990.32
2017-12-30T14:41:54.940Z,990.34
2017-12-30T14:42:53.878Z,990.23
2017-12-30T14:43:54.943Z,990.16
2017-12-30T14:44:53.877Z,990.14
2017-12-30T14:45:58.643Z,990.06
2017-12-30T14:46:53.877Z,990.35
2017-12-30T14:47:53.950Z,990.34
2017-12-30T14:48:53.951Z,990.47
2017-12-30T14:49:54.996Z,990.33
2017-12-30T14:50:53.879Z,990.33
2017-12-30T14:52:15.999Z,990.42
2017-12-30T14:52:53.880Z,990.47
2017-12-30T14:53:53.884Z,990.49
2017-12-30T14:55:18.682Z,990.54
2017-12-30T14:55:53.909Z,990.52
2017-12-30T14:56:53.888Z,990.60
2017-12-30T14:57:59.759Z,990.56
2017-12-30T14:58:53.895Z,990.48
2017-12-30T14:59:53.936Z,990.47
2017-12-30T15:00:53.900Z,990.39
2017-12-30T15:01:53.944Z,990.53
2017-12-30T15:02:53.893Z,990.65
2017-12-30T15:03:58.666Z,990.74
2017-12-30T15:04:58.675Z,990.76
2017-12-30T15:05:53.903Z,990.75
2017-12-30T15:07:04.731Z,990.79
2017-12-30T15:07:53.906Z,990.76
2017-12-30T15:08:53.994Z,990.78
2017-12-30T15:09:53.904Z,990.82
2017-12-30T15:10:58.712Z,990.97
2017-12-30T15:11:53.908Z,990.91
2017-12-30T15:12:55.967Z,990.94
2017-12-30T15:13:53.911Z,990.92
2017-12-30T15:15:08.673Z,990.95
2017-12-30T15:15:53.905Z,990.93
2017-12-30T15:16:53.911Z,990.96
2017-12-30T15:17:53.946Z,991.07
2017-12-30T15:18:53.926Z,991.14
2017-12-30T15:19:53.961Z,991.14
2017-12-30T15:20:53.921Z,991.10
2017-12-30T15:21:54.284Z,991.12
2017-12-30T15:22:53.920Z,991.09
2017-12-30T15:23:55.011Z,991.15
2017-12-30T15:24:53.927Z,991.24
2017-12-30T15:26:08.745Z,991.24
2017-12-30T15:26:53.927Z,991.29
2017-12-30T15:27:53.927Z,991.20
2017-12-30T15:28:54.239Z,991.27
2017-12-30T15:29:54.030Z,991.19
2017-12-30T15:30:53.929Z,991.26
2017-12-30T15:31:54.966Z,991.36
2017-12-30T15:32:53.937Z,991.36
2017-12-30T15:33:54.979Z,991.35
2017-12-30T15:34:53.951Z,991.36
2017-12-30T15:35:53.984Z,991.38
2017-12-30T15:36:53.943Z,991.30
2017-12-30T15:38:04.728Z,991.32
2017-12-30T15:38:53.944Z,991.45
2017-12-30T15:40:08.741Z,991.43
2017-12-30T15:40:53.952Z,991.48
2017-12-30T15:42:06.705Z,991.50
2017-12-30T15:42:53.952Z,991.61
2017-12-30T15:44:04.672Z,991.48
2017-12-30T15:44:53.955Z,991.59
2017-12-30T15:45:55.978Z,991.48
2017-12-30T15:46:53.968Z,991.53
2017-12-30T15:47:54.046Z,991.59
2017-12-30T15:48:53.967Z,991.70
2017-12-30T15:49:54.990Z,991.78
2017-12-30T15:50:53.967Z,991.67
2017-12-30T15:51:58.684Z,991.71
2017-12-30T15:52:53.986Z,991.80
2017-12-30T15:53:55.014Z,991.85
2017-12-30T15:54:53.976Z,991.92
2017-12-30T15:55:56.052Z,991.87
2017-12-30T15:56:54.001Z,991.94
2017-12-30T15:57:56.061Z,991.96
2017-12-30T15:58:53.981Z,991.88
2017-12-30T15:59:59.763Z,991.83
2017-12-30T16:00:53.988Z,991.73
2017-12-30T16:01:54.043Z,991.71
2017-12-30T16:02:53.994Z,991.81
2017-12-30T16:03:56.105Z,991.79
2017-12-30T16:04:53.998Z,991.80
2017-12-30T16:05:58.678Z,991.82
2017-12-30T16:06:54.001Z,991.93
2017-12-30T16:07:55.109Z,991.92
2017-12-30T16:08:54.001Z,991.94
2017-12-30T16:09:56.042Z,991.95
2017-12-30T16:10:54.004Z,991.96
2017-12-30T16:12:06.706Z,991.90
2017-12-30T16:12:54.005Z,991.92
2017-12-30T16:13:54.125Z,991.89
2017-12-30T16:14:54.010Z,991.90
2017-12-30T16:15:54.036Z,991.86
2017-12-30T16:16:54.018Z,991.88
2017-12-30T16:17:54.048Z,992.02
2017-12-30T16:18:54.034Z,992.08
2017-12-30T16:19:54.060Z,992.10
2017-12-30T16:20:54.029Z,992.01
2017-12-30T16:21:54.028Z,991.99
2017-12-30T16:22:54.084Z,992.12
2017-12-30T16:23:54.089Z,992.22
2017-12-30T16:25:09.655Z,992.15
2017-12-30T16:25:54.037Z,992.19
2017-12-30T16:26:55.134Z,992.19
2017-12-30T16:27:54.096Z,992.13
2017-12-30T16:28:58.731Z,992.18
2017-12-30T16:29:54.047Z,992.17
2017-12-30T16:30:56.085Z,992.22
2017-12-30T16:31:54.049Z,992.29
2017-12-30T16:32:54.152Z,992.34
2017-12-30T16:33:54.048Z,992.35
2017-12-30T16:34:59.699Z,992.34
2017-12-30T16:35:54.056Z,992.31
2017-12-30T16:36:54.076Z,992.32
2017-12-30T16:37:54.060Z,992.39
2017-12-30T16:39:04.737Z,992.40
2017-12-30T16:39:54.059Z,992.43
2017-12-30T16:40:55.124Z,992.50
2017-12-30T16:41:54.070Z,992.50
2017-12-30T16:42:55.136Z,992.49
2017-12-30T16:43:54.069Z,992.55
2017-12-30T16:44:56.176Z,992.44
2017-12-30T16:45:54.082Z,992.61
2017-12-30T16:46:58.752Z,992.47
2017-12-30T16:47:54.077Z,992.58
2017-12-30T16:48:56.103Z,992.62
2017-12-30T16:49:54.084Z,992.63
2017-12-30T16:50:58.676Z,992.66
2017-12-30T16:51:54.077Z,992.71
2017-12-30T16:52:54.195Z,992.65
2017-12-30T16:53:54.090Z,992.72
2017-12-30T16:54:54.207Z,992.65
2017-12-30T16:55:54.094Z,992.71
2017-12-30T16:57:04.764Z,992.81
2017-12-30T16:57:54.098Z,992.77
2017-12-30T16:58:59.762Z,992.69
2017-12-30T16:59:54.107Z,992.67
2017-12-30T17:00:55.167Z,992.73
2017-12-30T17:01:54.111Z,992.73
2017-12-30T17:02:54.151Z,992.85
2017-12-30T17:03:54.969Z,992.79
2017-12-30T17:04:54.984Z,992.91
2017-12-30T17:05:54.956Z,992.95
2017-12-30T17:06:55.001Z,993.06
2017-12-30T17:07:54.981Z,993.04
2017-12-30T17:08:55.006Z,993.05
2017-12-30T17:09:54.965Z,993.00
2017-12-30T17:10:55.030Z,993.13
2017-12-30T17:11:54.977Z,993.15
2017-12-30T17:12:55.044Z,993.17
2017-12-30T17:13:54.980Z,993.13
2017-12-30T17:14:55.062Z,993.16
2017-12-30T17:15:54.983Z,993.21
2017-12-30T17:16:56.093Z,993.13
2017-12-30T17:17:54.987Z,993.14
2017-12-30T17:18:55.080Z,993.19
2017-12-30T17:19:55.002Z,993.13
2017-12-30T17:20:55.093Z,993.16
2017-12-30T17:21:54.997Z,993.16
2017-12-30T17:22:55.113Z,993.27
2017-12-30T17:23:55.014Z,993.38
2017-12-30T17:24:55.120Z,993.40
2017-12-30T17:25:55.009Z,993.50
2017-12-30T17:26:55.032Z,993.39
2017-12-30T17:27:55.010Z,993.33
2017-12-30T17:28:55.047Z,993.37
2017-12-30T17:29:55.047Z,993.47
2017-12-30T17:30:55.058Z,993.45
2017-12-30T17:31:55.015Z,993.42
2017-12-30T17:32:55.072Z,993.37
2017-12-30T17:33:55.025Z,993.35
2017-12-30T17:34:55.087Z,993.37
2017-12-30T17:35:55.029Z,993.37
2017-12-30T17:36:55.098Z,993.41
2017-12-30T17:37:55.041Z,993.49
2017-12-30T17:38:55.104Z,993.48
2017-12-30T17:39:55.039Z,993.53
2017-12-30T17:40:55.132Z,993.54
2017-12-30T17:41:55.050Z,993.56
2017-12-30T17:42:55.140Z,993.60
2017-12-30T17:43:55.046Z,993.65
2017-12-30T17:44:55.158Z,993.60
2017-12-30T17:45:55.050Z,993.60
2017-12-30T17:46:55.161Z,993.57
2017-12-30T17:47:55.062Z,993.63
2017-12-30T17:48:55.131Z,993.56
2017-12-30T17:49:55.068Z,993.57
2017-12-30T17:50:55.095Z,993.55
2017-12-30T17:51:55.079Z,993.53
2017-12-30T17:52:55.105Z,993.45
2017-12-30T17:53:55.075Z,993.38
2017-12-30T17:54:55.122Z,993.54
2017-12-30T17:55:55.075Z,993.57
2017-12-30T17:56:55.137Z,993.57
2017-12-30T17:57:55.083Z,993.52
2017-12-30T17:58:55.149Z,993.45
2017-12-30T17:59:55.088Z,993.45
2017-12-30T18:00:55.163Z,993.47
2017-12-30T18:01:55.091Z,993.56
2017-12-30T18:02:55.184Z,993.57
2017-12-30T18:03:55.108Z,993.52
2017-12-30T18:04:55.190Z,993.47
2017-12-30T18:05:55.100Z,993.48
2017-12-30T18:06:55.200Z,993.53
2017-12-30T18:07:55.106Z,993.63
2017-12-30T18:08:55.215Z,993.53
2017-12-30T18:09:55.111Z,993.52
2017-12-30T18:10:55.230Z,993.56
2017-12-30T18:11:55.116Z,993.47
2017-12-30T18:12:55.137Z,993.50
2017-12-30T18:13:55.120Z,993.50
2017-12-30T18:14:55.153Z,993.52
2017-12-30T18:15:55.131Z,993.57
2017-12-30T18:16:55.190Z,993.50
2017-12-30T18:17:55.135Z,993.51
2017-12-30T18:18:57.228Z,993.40
2017-12-30T18:19:55.134Z,993.38
2017-12-30T18:20:55.196Z,993.41
2017-12-30T18:21:55.143Z,993.42
2017-12-30T18:22:55.205Z,993.40
2017-12-30T18:23:55.142Z,993.37
2017-12-30T18:24:55.217Z,993.44
2017-12-30T18:25:55.151Z,993.44
2017-12-30T18:26:55.235Z,993.37
2017-12-30T18:27:55.156Z,993.30
2017-12-30T18:28:55.243Z,993.27
2017-12-30T18:29:55.166Z,993.39
2017-12-30T18:30:55.261Z,993.36
2017-12-30T18:31:55.166Z,993.25
2017-12-30T18:32:56.195Z,993.21
2017-12-30T18:33:55.169Z,993.16
2017-12-30T18:34:55.237Z,993.28
2017-12-30T18:35:55.167Z,993.41
2017-12-30T18:36:55.202Z,993.41
2017-12-30T18:37:55.178Z,993.31
2017-12-30T18:38:56.236Z,993.39
2017-12-30T18:39:55.184Z,993.36
2017-12-30T18:40:55.238Z,993.24
2017-12-30T18:41:55.193Z,993.25
2017-12-30T18:42:55.239Z,993.32
2017-12-30T18:43:55.199Z,993.36
2017-12-30T18:44:57.301Z,993.37
2017-12-30T18:45:55.244Z,993.29
2017-12-30T18:46:55.267Z,993.28
2017-12-30T18:47:55.201Z,993.36
2017-12-30T18:48:57.227Z,993.47
2017-12-30T18:49:55.213Z,993.53
2017-12-30T18:50:57.240Z,993.62
2017-12-30T18:51:55.214Z,993.66
2017-12-30T18:52:56.234Z,993.63
2017-12-30T18:53:55.221Z,993.67
2017-12-30T18:54:57.271Z,993.63
2017-12-30T18:55:55.230Z,993.70
2017-12-30T18:56:55.338Z,993.62
2017-12-30T18:57:55.230Z,993.58
2017-12-30T18:58:57.301Z,993.47
2017-12-30T18:59:55.234Z,993.56
2017-12-30T19:00:57.310Z,993.57
2017-12-30T19:01:55.242Z,993.60
2017-12-30T19:02:55.269Z,993.61
2017-12-30T19:03:55.244Z,993.53
2017-12-30T19:04:55.289Z,993.65
2017-12-30T19:05:55.250Z,993.75
2017-12-30T19:06:55.302Z,993.80
2017-12-30T19:07:55.294Z,993.91
2017-12-30T19:08:56.343Z,994.02
2017-12-30T19:09:55.261Z,994.04
2017-12-30T19:10:55.360Z,994.12
2017-12-30T19:11:55.286Z,994.21
2017-12-30T19:12:55.350Z,994.15
2017-12-30T19:13:55.275Z,994.23
2017-12-30T19:14:55.356Z,994.16
2017-12-30T19:15:55.273Z,993.97
2017-12-30T19:16:55.366Z,994.00